Time,TemperatureF,DewpointF,PressureIn,WindDirection,WindDirectionDegrees,WindSpeedMPH,WindSpeedGustMPH,Humidity,HourlyPrecipIn,Conditions,Clouds,dailyrainin,SoftwareType,DateUTC
2013-01-18 00:00:00,33.5,33.0,30.14,North,0,0.0,0.0,98,0.00,,,0.00,LWC V2.00 B2112,2013-01-18 08:00:00,
2013-01-18 00:10:00,33.5,33.0,30.14,North,0,0.0,0.0,98,0.00,,,0.00,LWC V2.00 B2112,2013-01-18 08:10:00,
2013-01-18 00:20:00,33.5,33.0,30.14,North,0,0.0,0.0,98,0.00,,,0.00,LWC V2.00 B2112,2013-01-18 08:20:00,
2013-01-18 00:30:00,33.7,33.2,30.14,North,0,0.0,0.0,98,0.00,,,0.00,LWC V2.00 B2112,2013-01-18 08:30:00,
2013-01-18 00:40:00,33.7,33.2,30.14,North,0,0.0,0.0,98,0.00,,,0.00,LWC V2.00 B2112,2013-01-18 08:40:00,
2013-01-18 00:50:00,33.7,33.2,30.14,North,0,0.0,0.0,98,0.00,,,0.00,LWC V2.00 B2112,2013-01-18 08:50:00,
2013-01-18 01:00:00,33.4,32.9,30.14,North,0,0.0,0.0,98,0.00,,,0.00,LWC V2.00 B2112,2013-01-18 09:00:00,
2013-01-18 01:10:00,33.4,32.9,30.14,North,0,0.0,0.0,98,0.00,,,0.00,LWC V2.00 B2112,2013-01-18 09:10:00,
2013-01-18 01:20:00,33.4,32.9,30.14,North,0,0.0,0.0,98,0.00,,,0.00,LWC V2.00 B2112,2013-01-18 09:20:00,
2013-01-18 01:30:00,32.9,32.4,30.14,North,0,0.0,0.0,98,0.00,,,0.00,LWC V2.00 B2112,2013-01-18 09:30:00,
2013-01-18 01:40:00,32.9,32.4,30.14,North,0,0.0,0.0,98,0.00,,,0.00,LWC V2.00 B2112,2013-01-18 09:40:00,
2013-01-18 01:50:00,32.9,32.4,30.14,North,0,0.0,0.0,98,0.00,,,0.00,LWC V2.00 B2112,2013-01-18 09:50:00,
2013-01-18 02:00:00,33.3,32.8,30.14,North,0,0.0,0.0,98,0.00,,,0.00,LWC V2.00 B2112,2013-01-18 10:00:00,
2013-01-18 02:10:00,33.3,32.8,30.14,North,0,0.0,0.0,98,0.00,,,0.00,LWC V2.00 B2112,2013-01-18 10:10:00,
2013-01-18 02:20:00,33.3,32.8,30.14,North,0,0.0,0.0,98,0.00,,,0.00,LWC V2.00 B2112,2013-01-18 10:20:00,
2013-01-18 02:30:00,33.5,33.0,30.14,North,0,0.0,0.0,98,0.00,,,0.00,LWC V2.00 B2112,2013-01-18 10:30:00,
2013-01-18 02:40:00,33.5,33.0,30.14,North,0,0.0,0.0,98,0.00,,,0.00,LWC V2.00 B2112,2013-01-18 10:40:00,
2013-01-18 02:50:00,33.5,33.0,30.14,North,0,0.0,0.0,98,0.00,,,0.00,LWC V2.00 B2112,2013-01-18 10:50:00,
2013-01-18 03:00:00,33.7,33.2,30.14,North,0,0.0,0.0,98,0.00,,,0.00,LWC V2.00 B2112,2013-01-18 11:00:00,
2013-01-18 03:10:00,33.7,33.2,30.14,North,0,0.0,0.0,98,0.00,,,0.00,LWC V2.00 B2112,2013-01-18 11:10:00,
2013-01-18 03:20:00,33.7,33.2,30.14,North,0,0.0,0.0,98,0.00,,,0.00,LWC V2.00 B2112,2013-01-18 11:20:00,
2013-01-18 03:30:00,33.6,33.1,30.13,North,0,0.0,0.0,98,0.00,,,0.00,LWC V2.00 B2112,2013-01-18 11:30:00,
2013-01-18 03:40:00,33.6,33.1,30.13,North,0,0.0,0.0,98,0.00,,,0.00,LWC V2.00 B2112,2013-01-18 11:40:00,
2013-01-18 03:50:00,33.6,33.1,30.13,North,0,0.0,0.0,98,0.00,,,0.00,LWC V2.00 B2112,2013-01-18 11:50:00,
2013-01-18 04:00:00,33.6,33.1,30.14,North,0,0.0,0.0,98,0.00,,,0.00,LWC V2.00 B2112,2013-01-18 12:00:00,
2013-01-18 04:10:00,33.6,33.1,30.14,North,0,0.0,0.0,98,0.00,,,0.00,LWC V2.00 B2112,2013-01-18 12:10:00,
2013-01-18 04:20:00,33.6,33.1,30.14,North,0,0.0,0.0,98,0.00,,,0.00,LWC V2.00 B2112,2013-01-18 12:20:00,
2013-01-18 04:30:00,33.7,33.2,30.13,North,0,0.0,0.0,98,0.00,,,0.00,LWC V2.00 B2112,2013-01-18 12:30:00,
2013-01-18 04:40:00,33.7,33.2,30.13,North,0,0.0,0.0,98,0.00,,,0.00,LWC V2.00 B2112,2013-01-18 12:40:00,
2013-01-18 04:50:00,33.7,33.2,30.13,North,0,0.0,0.0,98,0.00,,,0.00,LWC V2.00 B2112,2013-01-18 12:50:00,
2013-01-18 05:00:00,33.3,32.8,30.13,North,0,0.0,0.0,98,0.00,,,0.00,LWC V2.00 B2112,2013-01-18 13:00:00,
2013-01-18 05:10:00,33.3,32.8,30.13,North,0,0.0,0.0,98,0.00,,,0.00,LWC V2.00 B2112,2013-01-18 13:10:00,
2013-01-18 05:20:00,33.3,32.8,30.13,North,0,0.0,0.0,98,0.00,,,0.00,LWC V2.00 B2112,2013-01-18 13:20:00,
2013-01-18 05:30:00,33.0,32.5,30.13,North,0,0.0,0.0,98,0.00,,,0.00,LWC V2.00 B2112,2013-01-18 13:30:00,
2013-01-18 05:45:00,33.5,33.0,30.13,SW,214,0.0,0.0,98,0.00,,,0.00,LWC V2.00 B2112,2013-01-18 13:45:00,
2013-01-18 05:50:00,33.5,33.0,30.13,SW,214,0.0,0.0,98,0.00,,,0.00,LWC V2.00 B2112,2013-01-18 13:50:00,
2013-01-18 05:55:00,33.5,33.0,30.14,SW,214,0.0,0.0,98,0.00,,,0.00,LWC V2.00 B2112,2013-01-18 13:55:00,
2013-01-18 06:00:00,33.5,33.0,30.14,SW,214,0.0,0.0,98,0.00,,,0.00,LWC V2.00 B2112,2013-01-18 14:00:00,
2013-01-18 06:05:00,33.3,32.8,30.14,SW,214,0.0,0.0,98,0.00,,,0.00,LWC V2.00 B2112,2013-01-18 14:05:00,
2013-01-18 06:10:00,33.3,32.8,30.14,SW,214,0.0,0.0,98,0.00,,,0.00,LWC V2.00 B2112,2013-01-18 14:10:00,
2013-01-18 06:15:00,33.4,32.9,30.14,SW,214,0.0,0.0,98,0.00,,,0.00,LWC V2.00 B2112,2013-01-18 14:15:00,
2013-01-18 06:20:00,33.4,32.9,30.14,SW,214,0.0,0.0,98,0.00,,,0.00,LWC V2.00 B2112,2013-01-18 14:20:00,
2013-01-18 06:25:00,33.4,32.9,30.14,SW,214,0.0,0.0,98,0.00,,,0.00,LWC V2.00 B2112,2013-01-18 14:25:00,
2013-01-18 06:30:00,33.5,33.0,30.14,SW,214,0.0,0.0,98,0.00,,,0.00,LWC V2.00 B2112,2013-01-18 14:30:00,
2013-01-18 06:35:00,33.5,33.0,30.14,SW,214,0.0,0.0,98,0.00,,,0.00,LWC V2.00 B2112,2013-01-18 14:35:00,
2013-01-18 06:40:00,33.4,32.9,30.14,SW,214,0.0,0.0,98,0.00,,,0.00,LWC V2.00 B2112,2013-01-18 14:40:00,
2013-01-18 06:45:00,33.3,32.8,30.14,SW,214,0.0,0.0,98,0.00,,,0.00,LWC V2.00 B2112,2013-01-18 14:45:00,
2013-01-18 06:50:00,33.3,32.8,30.14,SW,214,0.0,0.0,98,0.00,,,0.00,LWC V2.00 B2112,2013-01-18 14:50:00,
2013-01-18 06:55:00,33.3,32.8,30.14,SW,214,0.0,0.0,98,0.00,,,0.00,LWC V2.00 B2112,2013-01-18 14:55:00,
2013-01-18 07:01:00,33.3,32.8,30.14,SW,214,0.0,0.0,98,0.00,,,0.00,LWC V2.00 B2112,2013-01-18 15:01:00,
2013-01-18 07:06:00,33.6,33.3,30.15,SW,214,0.0,0.0,99,0.00,,,0.00,LWC V2.00 B2112,2013-01-18 15:06:00,
2013-01-18 07:11:00,33.6,33.3,30.15,SW,214,0.0,0.0,99,0.00,,,0.00,LWC V2.00 B2112,2013-01-18 15:11:00,
2013-01-18 07:16:00,33.6,33.3,30.15,SW,214,0.0,0.0,99,0.00,,,0.00,LWC V2.00 B2112,2013-01-18 15:16:00,
2013-01-18 07:21:00,33.5,33.2,30.15,SW,214,0.0,0.0,99,0.00,,,0.00,LWC V2.00 B2112,2013-01-18 15:21:00,
2013-01-18 07:26:00,33.6,33.3,30.15,SW,214,0.0,0.0,99,0.00,,,0.00,LWC V2.00 B2112,2013-01-18 15:26:00,
2013-01-18 07:31:00,33.6,33.3,30.15,SW,214,0.0,0.0,99,0.00,,,0.00,LWC V2.00 B2112,2013-01-18 15:31:00,
2013-01-18 07:36:00,33.6,33.3,30.15,SW,214,0.0,0.0,99,0.00,,,0.00,LWC V2.00 B2112,2013-01-18 15:36:00,
2013-01-18 07:41:00,33.5,33.2,30.15,SSW,212,0.0,0.0,99,0.00,,,0.00,LWC V2.00 B2112,2013-01-18 15:41:00,
2013-01-18 07:46:00,33.6,33.3,30.16,SW,214,0.0,0.0,99,0.00,,,0.00,LWC V2.00 B2112,2013-01-18 15:46:00,
2013-01-18 07:51:00,33.6,33.3,30.16,SSW,212,0.0,0.0,99,0.00,,,0.00,LWC V2.00 B2112,2013-01-18 15:51:00,
2013-01-18 07:56:00,33.7,33.4,30.16,SW,214,0.0,0.0,99,0.00,,,0.00,LWC V2.00 B2112,2013-01-18 15:56:00,
2013-01-18 08:01:00,33.8,33.5,30.16,SW,214,0.0,0.0,99,0.00,,,0.00,LWC V2.00 B2112,2013-01-18 16:01:00,
2013-01-18 08:06:00,34.0,33.7,30.16,SW,214,0.0,0.0,99,0.00,,,0.00,LWC V2.00 B2112,2013-01-18 16:06:00,
2013-01-18 08:11:00,34.1,33.8,30.16,SW,215,0.0,0.0,99,0.00,,,0.00,LWC V2.00 B2112,2013-01-18 16:11:00,
2013-01-18 08:16:00,34.0,33.7,30.16,SW,215,0.0,0.0,99,0.00,,,0.00,LWC V2.00 B2112,2013-01-18 16:16:00,
2013-01-18 08:21:00,34.0,33.7,30.17,SW,215,0.0,0.0,99,0.00,,,0.00,LWC V2.00 B2112,2013-01-18 16:21:00,
2013-01-18 08:26:00,34.2,33.9,30.17,SW,216,0.0,0.0,99,0.00,,,0.00,LWC V2.00 B2112,2013-01-18 16:26:00,
2013-01-18 08:31:00,34.5,34.2,30.17,SW,215,0.0,0.0,99,0.00,,,0.00,LWC V2.00 B2112,2013-01-18 16:31:00,
2013-01-18 08:36:00,34.8,34.5,30.17,SW,215,0.0,0.0,99,0.00,,,0.00,LWC V2.00 B2112,2013-01-18 16:36:00,
2013-01-18 08:41:00,34.9,34.6,30.17,SW,216,0.0,0.0,99,0.00,,,0.00,LWC V2.00 B2112,2013-01-18 16:41:00,
2013-01-18 08:46:00,35.3,35.0,30.17,SW,215,0.0,0.0,99,0.00,,,0.00,LWC V2.00 B2112,2013-01-18 16:46:00,
2013-01-18 08:51:00,35.7,35.4,30.17,SW,215,0.0,0.0,99,0.00,,,0.00,LWC V2.00 B2112,2013-01-18 16:51:00,
2013-01-18 08:56:00,36.2,35.9,30.17,SW,215,0.0,0.0,99,0.00,,,0.00,LWC V2.00 B2112,2013-01-18 16:56:00,
2013-01-18 09:01:00,36.6,36.3,30.18,SW,215,0.0,0.0,99,0.00,,,0.00,LWC V2.00 B2112,2013-01-18 17:01:00,
2013-01-18 09:06:00,36.9,36.6,30.18,SW,215,0.0,0.0,99,0.00,,,0.00,LWC V2.00 B2112,2013-01-18 17:06:00,
2013-01-18 09:11:00,37.3,37.0,30.18,SW,215,0.0,0.0,99,0.00,,,0.00,LWC V2.00 B2112,2013-01-18 17:11:00,
2013-01-18 09:16:00,37.8,37.5,30.18,SW,215,0.0,0.0,99,0.00,,,0.00,LWC V2.00 B2112,2013-01-18 17:16:00,
2013-01-18 09:21:00,38.3,38.0,30.18,SW,215,0.0,0.0,99,0.00,,,0.00,LWC V2.00 B2112,2013-01-18 17:21:00,
2013-01-18 09:26:00,38.8,38.5,30.18,SW,215,0.0,0.0,99,0.00,,,0.00,LWC V2.00 B2112,2013-01-18 17:26:00,
2013-01-18 09:31:00,39.2,38.9,30.18,SW,215,0.0,0.0,99,0.00,,,0.00,LWC V2.00 B2112,2013-01-18 17:31:00,
2013-01-18 09:36:00,39.5,39.2,30.18,SW,215,0.0,0.0,99,0.00,,,0.00,LWC V2.00 B2112,2013-01-18 17:36:00,
2013-01-18 09:41:00,39.9,39.6,30.18,SW,215,0.0,0.0,99,0.00,,,0.00,LWC V2.00 B2112,2013-01-18 17:41:00,
2013-01-18 09:46:00,40.4,40.1,30.18,SW,215,0.0,0.0,99,0.00,,,0.00,LWC V2.00 B2112,2013-01-18 17:46:00,
2013-01-18 09:51:00,40.8,40.5,30.18,SW,215,0.0,0.0,99,0.00,,,0.00,LWC V2.00 B2112,2013-01-18 17:51:00,
2013-01-18 09:56:00,41.1,40.8,30.18,SW,215,0.0,0.0,99,0.00,,,0.00,LWC V2.00 B2112,2013-01-18 17:56:00,
2013-01-18 10:01:00,41.4,41.1,30.18,SSW,212,0.0,1.0,99,0.00,,,0.00,LWC V2.00 B2112,2013-01-18 18:01:00,
2013-01-18 10:06:00,41.8,41.5,30.18,South,183,0.0,1.0,99,0.00,,,0.00,LWC V2.00 B2112,2013-01-18 18:06:00,
2013-01-18 10:11:00,42.2,41.9,30.18,SSE,150,0.0,1.0,99,0.00,,,0.00,LWC V2.00 B2112,2013-01-18 18:11:00,
2013-01-18 10:16:00,42.4,42.1,30.18,SSE,150,0.0,0.0,99,0.00,,,0.00,LWC V2.00 B2112,2013-01-18 18:16:00,
2013-01-18 10:21:00,42.8,42.5,30.18,SSE,167,0.0,0.0,99,0.00,,,0.00,LWC V2.00 B2112,2013-01-18 18:21:00,
2013-01-18 10:26:00,43.2,42.9,30.18,SSW,203,0.0,1.0,99,0.00,,,0.00,LWC V2.00 B2112,2013-01-18 18:26:00,
2013-01-18 10:31:00,43.6,43.3,30.17,South,191,1.0,1.0,99,0.00,,,0.00,LWC V2.00 B2112,2013-01-18 18:31:00,
2013-01-18 10:36:00,44.1,43.8,30.17,SSE,153,1.0,1.0,99,0.00,,,0.00,LWC V2.00 B2112,2013-01-18 18:36:00,
2013-01-18 10:41:00,44.5,44.2,30.17,SSE,160,1.0,2.0,99,0.00,,,0.00,LWC V2.00 B2112,2013-01-18 18:41:00,
2013-01-18 10:46:00,44.8,44.5,30.17,SE,143,2.0,2.0,99,0.00,,,0.00,LWC V2.00 B2112,2013-01-18 18:46:00,
2013-01-18 10:51:00,45.3,45.0,30.17,South,177,1.0,2.0,99,0.00,,,0.00,LWC V2.00 B2112,2013-01-18 18:51:00,
2013-01-18 10:56:00,45.8,45.5,30.17,SSW,204,2.0,2.0,99,0.00,,,0.00,LWC V2.00 B2112,2013-01-18 18:56:00,
2013-01-18 11:01:00,46.2,45.9,30.16,South,173,1.0,2.0,99,0.00,,,0.00,LWC V2.00 B2112,2013-01-18 19:01:00,
2013-01-18 11:06:00,46.7,46.2,30.16,SSW,200,0.0,2.0,98,0.00,,,0.00,LWC V2.00 B2112,2013-01-18 19:06:00,
2013-01-18 11:11:00,47.3,46.5,30.16,SE,124,0.0,2.0,97,0.00,,,0.00,LWC V2.00 B2112,2013-01-18 19:11:00,
2013-01-18 11:16:00,47.9,46.5,30.16,SSW,194,0.0,2.0,95,0.00,,,0.00,LWC V2.00 B2112,2013-01-18 19:16:00,
2013-01-18 11:21:00,48.3,46.1,30.16,SSE,160,1.0,2.0,92,0.00,,,0.00,LWC V2.00 B2112,2013-01-18 19:21:00,
2013-01-18 11:26:00,48.9,46.1,30.16,SE,136,1.0,2.0,90,0.00,,,0.00,LWC V2.00 B2112,2013-01-18 19:26:00,
2013-01-18 11:31:00,49.6,46.2,30.16,SSW,211,1.0,1.0,88,0.00,,,0.01,LWC V2.00 B2112,2013-01-18 19:31:00,
2013-01-18 11:36:00,49.8,45.8,30.15,SSE,148,1.0,3.0,86,0.00,,,0.01,LWC V2.00 B2112,2013-01-18 19:36:00,
2013-01-18 11:41:00,50.4,45.4,30.15,SE,138,0.0,2.0,83,0.00,,,0.01,LWC V2.00 B2112,2013-01-18 19:41:00,
2013-01-18 11:46:00,50.6,45.0,30.15,SSW,193,0.0,1.0,81,0.00,,,0.01,LWC V2.00 B2112,2013-01-18 19:46:00,
2013-01-18 11:51:00,50.8,45.2,30.15,SSE,155,2.0,2.0,81,0.00,,,0.01,LWC V2.00 B2112,2013-01-18 19:51:00,
2013-01-18 11:56:00,51.0,44.7,30.14,SSE,168,1.0,2.0,79,0.00,,,0.01,LWC V2.00 B2112,2013-01-18 19:56:00,
2013-01-18 12:01:00,51.4,45.1,30.14,SE,133,1.0,1.0,79,0.00,,,0.01,LWC V2.00 B2112,2013-01-18 20:01:00,
2013-01-18 12:06:00,51.8,44.5,30.14,SSE,158,1.0,2.0,76,0.00,,,0.01,LWC V2.00 B2112,2013-01-18 20:06:00,
2013-01-18 12:11:00,52.2,45.2,30.13,SSE,152,1.0,1.0,77,0.00,,,0.01,LWC V2.00 B2112,2013-01-18 20:11:00,
2013-01-18 12:16:00,52.6,44.6,30.13,SSE,167,1.0,2.0,74,0.00,,,0.01,LWC V2.00 B2112,2013-01-18 20:16:00,
2013-01-18 12:21:00,53.0,45.3,30.13,East,84,1.0,2.0,75,0.00,,,0.01,LWC V2.00 B2112,2013-01-18 20:21:00,
2013-01-18 12:26:00,54.0,44.1,30.12,South,172,0.0,0.0,69,0.00,,,0.01,LWC V2.00 B2112,2013-01-18 20:26:00,
2013-01-18 12:31:00,54.1,45.3,30.12,SSE,166,1.0,2.0,72,0.00,,,0.01,LWC V2.00 B2112,2013-01-18 20:31:00,
2013-01-18 12:36:00,54.3,44.3,30.12,SE,136,0.0,0.0,69,0.00,,,0.01,LWC V2.00 B2112,2013-01-18 20:36:00,
2013-01-18 12:41:00,54.5,45.7,30.12,SSE,163,0.0,2.0,72,0.00,,,0.01,LWC V2.00 B2112,2013-01-18 20:41:00,
2013-01-18 12:46:00,54.5,44.5,30.12,SSW,204,1.0,2.0,69,0.00,,,0.01,LWC V2.00 B2112,2013-01-18 20:46:00,
2013-01-18 12:51:00,54.6,44.3,30.11,NE,38,0.0,2.0,68,0.00,,,0.01,LWC V2.00 B2112,2013-01-18 20:51:00,
2013-01-18 12:56:00,54.8,45.6,30.11,SSE,149,1.0,1.0,71,0.00,,,0.01,LWC V2.00 B2112,2013-01-18 20:56:00,
2013-01-18 13:01:00,54.9,44.5,30.11,SSE,159,1.0,2.0,68,0.00,,,0.01,LWC V2.00 B2112,2013-01-18 21:01:00,
2013-01-18 13:06:00,54.9,46.4,30.11,SSE,156,1.0,1.0,73,0.00,,,0.01,LWC V2.00 B2112,2013-01-18 21:06:00,
2013-01-18 13:11:00,55.1,45.5,30.11,South,180,0.0,4.0,70,0.00,,,0.01,LWC V2.00 B2112,2013-01-18 21:11:00,
2013-01-18 13:16:00,55.3,46.1,30.11,SSE,153,1.0,2.0,71,0.00,,,0.01,LWC V2.00 B2112,2013-01-18 21:16:00,
2013-01-18 13:21:00,55.2,46.3,30.11,South,170,0.0,1.0,72,0.00,,,0.01,LWC V2.00 B2112,2013-01-18 21:21:00,
2013-01-18 13:26:00,55.2,46.7,30.10,SSE,150,2.0,2.0,73,0.00,,,0.01,LWC V2.00 B2112,2013-01-18 21:26:00,
2013-01-18 13:31:00,55.1,46.2,30.10,SSW,202,1.0,2.0,72,0.00,,,0.01,LWC V2.00 B2112,2013-01-18 21:31:00,
2013-01-18 13:36:00,55.1,46.6,30.10,SSW,208,0.0,2.0,73,0.00,,,0.01,LWC V2.00 B2112,2013-01-18 21:36:00,
2013-01-18 13:41:00,55.1,45.9,30.10,SSE,167,1.0,1.0,71,0.00,,,0.01,LWC V2.00 B2112,2013-01-18 21:41:00,
2013-01-18 13:46:00,55.2,46.3,30.10,SSE,167,0.0,1.0,72,0.00,,,0.01,LWC V2.00 B2112,2013-01-18 21:46:00,
2013-01-18 13:51:00,55.2,46.0,30.10,SSE,161,1.0,2.0,71,0.00,,,0.01,LWC V2.00 B2112,2013-01-18 21:51:00,
2013-01-18 13:56:00,55.1,45.5,30.10,SSE,153,0.0,1.0,70,0.00,,,0.01,LWC V2.00 B2112,2013-01-18 21:56:00,
2013-01-18 14:01:00,55.0,45.8,30.10,SSE,163,0.0,2.0,71,0.00,,,0.01,LWC V2.00 B2112,2013-01-18 22:01:00,
2013-01-18 14:06:00,54.9,45.3,30.10,South,190,2.0,2.0,70,0.00,,,0.01,LWC V2.00 B2112,2013-01-18 22:06:00,
2013-01-18 14:11:00,54.9,45.3,30.10,SSW,203,2.0,2.0,70,0.00,,,0.01,LWC V2.00 B2112,2013-01-18 22:11:00,
2013-01-18 14:16:00,54.8,45.2,30.10,SSE,153,2.0,2.0,70,0.00,,,0.01,LWC V2.00 B2112,2013-01-18 22:16:00,
2013-01-18 14:21:00,54.7,44.7,30.10,South,169,2.0,2.0,69,0.00,,,0.01,LWC V2.00 B2112,2013-01-18 22:21:00,
2013-01-18 14:26:00,54.7,45.5,30.10,SSE,160,1.0,1.0,71,0.00,,,0.01,LWC V2.00 B2112,2013-01-18 22:26:00,
2013-01-18 14:31:00,54.5,45.7,30.10,SSE,153,1.0,2.0,72,0.00,,,0.01,LWC V2.00 B2112,2013-01-18 22:31:00,
2013-01-18 14:36:00,54.2,45.4,30.09,SSE,160,1.0,1.0,72,0.00,,,0.01,LWC V2.00 B2112,2013-01-18 22:36:00,
2013-01-18 14:41:00,54.0,45.5,30.10,SSE,155,1.0,1.0,73,0.00,,,0.01,LWC V2.00 B2112,2013-01-18 22:41:00,
2013-01-18 14:46:00,53.8,45.7,30.09,SSE,160,1.0,1.0,74,0.00,,,0.01,LWC V2.00 B2112,2013-01-18 22:46:00,
2013-01-18 14:51:00,53.7,46.0,30.09,SSE,162,1.0,1.0,75,0.00,,,0.01,LWC V2.00 B2112,2013-01-18 22:51:00,
2013-01-18 14:56:00,53.7,46.0,30.09,SSE,158,1.0,1.0,75,0.00,,,0.01,LWC V2.00 B2112,2013-01-18 22:56:00,
2013-01-18 15:01:00,53.5,46.1,30.09,SSE,158,1.0,1.0,76,0.00,,,0.01,LWC V2.00 B2112,2013-01-18 23:01:00,
2013-01-18 15:06:00,53.2,46.5,30.09,South,184,1.0,1.0,78,0.00,,,0.01,LWC V2.00 B2112,2013-01-18 23:06:00,
2013-01-18 15:11:00,52.9,46.2,30.09,SSW,194,0.0,1.0,78,0.00,,,0.01,LWC V2.00 B2112,2013-01-18 23:11:00,
2013-01-18 15:16:00,52.6,46.3,30.09,SSW,207,0.0,1.0,79,0.00,,,0.01,LWC V2.00 B2112,2013-01-18 23:16:00,
2013-01-18 15:21:00,52.3,46.3,30.09,SSW,207,0.0,1.0,80,0.00,,,0.01,LWC V2.00 B2112,2013-01-18 23:21:00,
2013-01-18 15:26:00,52.1,46.1,30.09,SSW,208,0.0,1.0,80,0.00,,,0.01,LWC V2.00 B2112,2013-01-18 23:26:00,
2013-01-18 15:31:00,51.8,45.8,30.09,SSW,208,1.0,1.0,80,0.00,,,0.01,LWC V2.00 B2112,2013-01-18 23:31:00,
2013-01-18 15:36:00,51.5,45.9,30.09,SSW,210,0.0,0.0,81,0.00,,,0.01,LWC V2.00 B2112,2013-01-18 23:36:00,
2013-01-18 15:41:00,51.1,45.5,30.09,SSW,212,0.0,1.0,81,0.00,,,0.01,LWC V2.00 B2112,2013-01-18 23:41:00,
2013-01-18 15:46:00,50.7,45.4,30.09,SW,214,0.0,0.0,82,0.00,,,0.01,LWC V2.00 B2112,2013-01-18 23:46:00,
2013-01-18 15:51:00,50.3,45.3,30.09,SW,214,0.0,0.0,83,0.00,,,0.01,LWC V2.00 B2112,2013-01-18 23:51:00,
2013-01-18 15:56:00,50.0,45.0,30.09,SW,214,0.0,0.0,83,0.00,,,0.01,LWC V2.00 B2112,2013-01-18 23:56:00,
2013-01-18 16:01:00,49.7,45.4,30.09,SW,214,0.0,0.0,85,0.00,,,0.01,LWC V2.00 B2112,2013-01-19 00:01:00,
2013-01-18 16:06:00,49.3,45.0,30.09,SW,214,0.0,0.0,85,0.00,,,0.01,LWC V2.00 B2112,2013-01-19 00:06:00,
2013-01-18 16:11:00,48.9,44.6,30.09,SW,214,0.0,0.0,85,0.00,,,0.01,LWC V2.00 B2112,2013-01-19 00:11:00,
2013-01-18 16:16:00,48.5,44.5,30.09,SW,214,0.0,0.0,86,0.00,,,0.01,LWC V2.00 B2112,2013-01-19 00:16:00,
2013-01-18 16:21:00,48.1,44.1,30.09,SW,214,0.0,0.0,86,0.00,,,0.01,LWC V2.00 B2112,2013-01-19 00:21:00,
2013-01-18 16:26:00,47.8,44.1,30.09,SW,214,0.0,0.0,87,0.00,,,0.01,LWC V2.00 B2112,2013-01-19 00:26:00,
2013-01-18 16:31:00,47.4,43.7,30.09,SW,214,0.0,0.0,87,0.00,,,0.01,LWC V2.00 B2112,2013-01-19 00:31:00,
2013-01-18 16:36:00,46.9,43.2,30.09,SW,214,0.0,0.0,87,0.00,,,0.01,LWC V2.00 B2112,2013-01-19 00:36:00,
2013-01-18 16:41:00,46.6,43.2,30.09,SW,214,0.0,0.0,88,0.00,,,0.01,LWC V2.00 B2112,2013-01-19 00:41:00,
2013-01-18 16:46:00,46.3,43.2,30.09,SW,214,0.0,0.0,89,0.00,,,0.01,LWC V2.00 B2112,2013-01-19 00:46:00,
2013-01-18 16:51:00,45.9,42.8,30.09,SW,214,0.0,0.0,89,0.00,,,0.01,LWC V2.00 B2112,2013-01-19 00:51:00,
2013-01-18 16:56:00,45.7,42.9,30.09,SW,214,0.0,0.0,90,0.00,,,0.01,LWC V2.00 B2112,2013-01-19 00:56:00,
2013-01-18 17:01:00,45.4,42.6,30.10,SW,214,0.0,0.0,90,0.00,,,0.01,LWC V2.00 B2112,2013-01-19 01:01:00,
2013-01-18 17:06:00,45.0,42.2,30.10,SW,214,0.0,0.0,90,0.00,,,0.01,LWC V2.00 B2112,2013-01-19 01:06:00,
2013-01-18 17:11:00,44.6,42.1,30.10,SW,214,0.0,0.0,91,0.00,,,0.01,LWC V2.00 B2112,2013-01-19 01:11:00,
2013-01-18 17:16:00,44.3,41.8,30.10,SW,215,0.0,0.0,91,0.00,,,0.01,LWC V2.00 B2112,2013-01-19 01:16:00,
2013-01-18 17:21:00,44.0,41.5,30.10,SW,215,0.0,0.0,91,0.00,,,0.01,LWC V2.00 B2112,2013-01-19 01:21:00,
2013-01-18 17:26:00,43.7,41.2,30.10,SW,215,0.0,0.0,91,0.00,,,0.01,LWC V2.00 B2112,2013-01-19 01:26:00,
2013-01-18 17:31:00,43.3,41.1,30.10,SW,215,0.0,0.0,92,0.00,,,0.01,LWC V2.00 B2112,2013-01-19 01:31:00,
2013-01-18 17:36:00,43.0,40.8,30.10,SW,215,0.0,0.0,92,0.00,,,0.01,LWC V2.00 B2112,2013-01-19 01:36:00,
2013-01-18 17:41:00,42.7,40.5,30.10,SW,215,0.0,0.0,92,0.00,,,0.01,LWC V2.00 B2112,2013-01-19 01:41:00,
2013-01-18 17:46:00,42.5,40.3,30.10,SW,215,0.0,0.0,92,0.00,,,0.01,LWC V2.00 B2112,2013-01-19 01:46:00,
2013-01-18 17:51:00,42.2,40.3,30.10,SW,215,0.0,0.0,93,0.00,,,0.01,LWC V2.00 B2112,2013-01-19 01:51:00,
2013-01-18 17:56:00,42.0,40.1,30.10,SW,215,0.0,0.0,93,0.00,,,0.01,LWC V2.00 B2112,2013-01-19 01:56:00,
2013-01-18 18:01:00,41.8,39.9,30.10,SW,215,0.0,0.0,93,0.00,,,0.01,LWC V2.00 B2112,2013-01-19 02:01:00,
2013-01-18 18:06:00,41.4,39.5,30.11,SW,215,0.0,0.0,93,0.00,,,0.01,LWC V2.00 B2112,2013-01-19 02:06:00,
2013-01-18 18:11:00,41.2,39.3,30.10,SW,215,0.0,0.0,93,0.00,,,0.01,LWC V2.00 B2112,2013-01-19 02:11:00,
2013-01-18 18:16:00,41.0,39.1,30.10,SW,215,0.0,0.0,93,0.00,,,0.01,LWC V2.00 B2112,2013-01-19 02:16:00,
2013-01-18 18:21:00,40.8,38.9,30.10,SW,215,0.0,0.0,93,0.00,,,0.01,LWC V2.00 B2112,2013-01-19 02:21:00,
2013-01-18 18:26:00,40.7,39.1,30.11,SW,215,0.0,0.0,94,0.00,,,0.01,LWC V2.00 B2112,2013-01-19 02:26:00,
2013-01-18 18:31:00,40.6,39.0,30.11,SW,215,0.0,0.0,94,0.00,,,0.01,LWC V2.00 B2112,2013-01-19 02:31:00,
2013-01-18 18:36:00,40.5,38.9,30.11,SW,215,0.0,0.0,94,0.00,,,0.01,LWC V2.00 B2112,2013-01-19 02:36:00,
2013-01-18 18:41:00,40.3,38.7,30.11,SW,215,0.0,0.0,94,0.00,,,0.01,LWC V2.00 B2112,2013-01-19 02:41:00,
2013-01-18 18:46:00,40.1,38.5,30.11,SW,215,0.0,0.0,94,0.00,,,0.01,LWC V2.00 B2112,2013-01-19 02:46:00,
2013-01-18 18:51:00,39.9,38.3,30.11,SW,215,0.0,0.0,94,0.00,,,0.01,LWC V2.00 B2112,2013-01-19 02:51:00,
2013-01-18 18:56:00,39.7,38.1,30.11,SW,215,0.0,0.0,94,0.00,,,0.01,LWC V2.00 B2112,2013-01-19 02:56:00,
2013-01-18 19:01:00,39.6,38.0,30.11,SW,215,0.0,0.0,94,0.00,,,0.01,LWC V2.00 B2112,2013-01-19 03:01:00,
2013-01-18 19:06:00,39.4,37.8,30.11,SW,215,0.0,0.0,94,0.00,,,0.01,LWC V2.00 B2112,2013-01-19 03:06:00,
2013-01-18 19:11:00,39.3,37.7,30.11,SW,215,0.0,0.0,94,0.00,,,0.01,LWC V2.00 B2112,2013-01-19 03:11:00,
2013-01-18 19:16:00,39.2,37.9,30.11,SW,215,0.0,0.0,95,0.00,,,0.01,LWC V2.00 B2112,2013-01-19 03:16:00,
2013-01-18 19:21:00,39.1,37.8,30.11,SW,215,0.0,0.0,95,0.00,,,0.01,LWC V2.00 B2112,2013-01-19 03:21:00,
2013-01-18 19:26:00,38.9,37.6,30.11,SW,215,0.0,0.0,95,0.00,,,0.01,LWC V2.00 B2112,2013-01-19 03:26:00,
2013-01-18 19:31:00,38.9,37.6,30.11,SW,215,0.0,0.0,95,0.00,,,0.01,LWC V2.00 B2112,2013-01-19 03:31:00,
2013-01-18 19:36:00,38.8,37.5,30.11,SW,215,0.0,0.0,95,0.00,,,0.01,LWC V2.00 B2112,2013-01-19 03:36:00,
2013-01-18 19:41:00,38.7,37.4,30.11,SW,215,0.0,0.0,95,0.00,,,0.01,LWC V2.00 B2112,2013-01-19 03:41:00,
2013-01-18 19:46:00,38.7,37.4,30.11,SW,215,0.0,0.0,95,0.00,,,0.01,LWC V2.00 B2112,2013-01-19 03:46:00,
2013-01-18 19:51:00,38.5,37.2,30.11,SW,215,0.0,0.0,95,0.00,,,0.01,LWC V2.00 B2112,2013-01-19 03:51:00,
2013-01-18 19:56:00,38.5,37.2,30.12,SW,215,0.0,0.0,95,0.00,,,0.01,LWC V2.00 B2112,2013-01-19 03:56:00,
2013-01-18 20:01:00,38.3,37.0,30.12,SW,215,0.0,0.0,95,0.00,,,0.01,LWC V2.00 B2112,2013-01-19 04:01:00,
2013-01-18 20:06:00,38.2,36.9,30.12,SW,215,0.0,0.0,95,0.00,,,0.01,LWC V2.00 B2112,2013-01-19 04:06:00,
2013-01-18 20:11:00,38.1,36.8,30.11,SW,215,0.0,0.0,95,0.00,,,0.01,LWC V2.00 B2112,2013-01-19 04:11:00,
2013-01-18 20:16:00,37.9,36.6,30.11,SW,215,0.0,0.0,95,0.00,,,0.01,LWC V2.00 B2112,2013-01-19 04:16:00,
2013-01-18 20:21:00,37.8,36.8,30.11,SW,216,0.0,0.0,96,0.00,,,0.01,LWC V2.00 B2112,2013-01-19 04:21:00,
2013-01-18 20:26:00,37.7,36.7,30.12,SW,215,0.0,0.0,96,0.00,,,0.01,LWC V2.00 B2112,2013-01-19 04:26:00,
2013-01-18 20:31:00,37.6,36.6,30.11,SW,215,0.0,0.0,96,0.00,,,0.01,LWC V2.00 B2112,2013-01-19 04:31:00,
2013-01-18 20:36:00,37.7,36.7,30.11,SW,215,0.0,0.0,96,0.00,,,0.01,LWC V2.00 B2112,2013-01-19 04:36:00,
2013-01-18 20:41:00,37.5,36.5,30.12,SW,216,0.0,0.0,96,0.00,,,0.01,LWC V2.00 B2112,2013-01-19 04:41:00,
2013-01-18 20:46:00,37.3,36.3,30.12,SW,215,0.0,0.0,96,0.00,,,0.01,LWC V2.00 B2112,2013-01-19 04:46:00,
2013-01-18 20:51:00,37.3,36.3,30.12,SW,215,0.0,0.0,96,0.00,,,0.01,LWC V2.00 B2112,2013-01-19 04:51:00,
2013-01-18 20:56:00,37.2,36.2,30.12,SW,215,0.0,0.0,96,0.00,,,0.01,LWC V2.00 B2112,2013-01-19 04:56:00,
2013-01-18 21:00:00,37.0,36.0,30.12,SW,215,0.0,0.0,96,0.00,,,0.01,LWC V2.00 B2112,2013-01-19 05:00:00,
2013-01-18 21:02:00,37.0,36.0,30.12,SW,215,0.0,0.0,96,0.00,,,0.01,LWC V2.00 B2112,2013-01-19 05:02:00,
2013-01-18 21:07:00,36.9,35.9,30.12,SW,215,0.0,0.0,96,0.00,,,0.01,LWC V2.00 B2112,2013-01-19 05:07:00,
2013-01-18 21:12:00,36.9,35.9,30.12,SW,215,0.0,0.0,96,0.00,,,0.01,LWC V2.00 B2112,2013-01-19 05:12:00,
2013-01-18 21:17:00,36.9,35.9,30.12,SW,215,0.0,0.0,96,0.00,,,0.01,LWC V2.00 B2112,2013-01-19 05:17:00,
2013-01-18 21:22:00,36.9,35.9,30.12,SW,216,0.0,0.0,96,0.00,,,0.01,LWC V2.00 B2112,2013-01-19 05:22:00,
2013-01-18 21:26:00,36.8,35.8,30.12,SW,215,0.0,0.0,96,0.00,,,0.01,LWC V2.00 B2112,2013-01-19 05:26:00,
2013-01-18 21:31:00,36.6,35.6,30.12,SW,215,0.0,0.0,96,0.00,,,0.01,LWC V2.00 B2112,2013-01-19 05:31:00,
2013-01-18 21:36:00,36.6,35.6,30.12,SW,215,0.0,0.0,96,0.00,,,0.01,LWC V2.00 B2112,2013-01-19 05:36:00,
2013-01-18 21:41:00,36.4,35.4,30.12,SW,215,0.0,0.0,96,0.00,,,0.01,LWC V2.00 B2112,2013-01-19 05:41:00,
2013-01-18 21:46:00,36.1,35.1,30.12,SW,215,0.0,0.0,96,0.00,,,0.01,LWC V2.00 B2112,2013-01-19 05:46:00,
2013-01-18 21:51:00,36.0,35.0,30.12,SW,215,0.0,0.0,96,0.00,,,0.01,LWC V2.00 B2112,2013-01-19 05:51:00,
2013-01-18 21:56:00,35.8,34.8,30.12,SW,215,0.0,0.0,96,0.00,,,0.01,LWC V2.00 B2112,2013-01-19 05:56:00,
2013-01-18 22:01:00,35.7,34.7,30.12,SW,216,0.0,0.0,96,0.00,,,0.01,LWC V2.00 B2112,2013-01-19 06:01:00,
2013-01-18 22:06:00,35.7,34.7,30.12,SW,215,0.0,0.0,96,0.00,,,0.01,LWC V2.00 B2112,2013-01-19 06:06:00,
2013-01-18 22:11:00,35.5,34.5,30.12,SW,215,0.0,0.0,96,0.00,,,0.01,LWC V2.00 B2112,2013-01-19 06:11:00,
2013-01-18 22:16:00,35.4,34.6,30.13,SW,216,0.0,0.0,97,0.00,,,0.01,LWC V2.00 B2112,2013-01-19 06:16:00,
2013-01-18 22:21:00,35.3,34.5,30.12,SW,215,0.0,0.0,97,0.00,,,0.01,LWC V2.00 B2112,2013-01-19 06:21:00,
2013-01-18 22:26:00,35.5,34.7,30.12,SW,215,0.0,0.0,97,0.00,,,0.01,LWC V2.00 B2112,2013-01-19 06:26:00,
2013-01-18 22:31:00,35.6,34.8,30.13,SW,215,0.0,0.0,97,0.00,,,0.01,LWC V2.00 B2112,2013-01-19 06:31:00,
2013-01-18 22:36:00,35.7,34.9,30.12,SW,216,0.0,0.0,97,0.00,,,0.01,LWC V2.00 B2112,2013-01-19 06:36:00,
2013-01-18 22:41:00,35.6,34.8,30.13,SW,215,0.0,0.0,97,0.00,,,0.01,LWC V2.00 B2112,2013-01-19 06:41:00,
2013-01-18 22:46:00,35.5,34.7,30.13,SW,215,0.0,0.0,97,0.00,,,0.01,LWC V2.00 B2112,2013-01-19 06:46:00,
2013-01-18 22:51:00,35.7,34.9,30.13,SW,216,0.0,0.0,97,0.00,,,0.01,LWC V2.00 B2112,2013-01-19 06:51:00,
2013-01-18 22:56:00,35.8,35.0,30.13,SW,215,0.0,0.0,97,0.00,,,0.01,LWC V2.00 B2112,2013-01-19 06:56:00,
2013-01-18 23:01:00,35.8,35.0,30.13,SW,215,0.0,0.0,97,0.00,,,0.01,LWC V2.00 B2112,2013-01-19 07:01:00,
2013-01-18 23:06:00,35.7,34.9,30.13,SW,215,0.0,0.0,97,0.00,,,0.01,LWC V2.00 B2112,2013-01-19 07:06:00,
2013-01-18 23:11:00,35.6,34.8,30.13,SW,215,0.0,0.0,97,0.00,,,0.01,LWC V2.00 B2112,2013-01-19 07:11:00,
2013-01-18 23:16:00,35.4,34.6,30.13,SW,216,0.0,0.0,97,0.00,,,0.01,LWC V2.00 B2112,2013-01-19 07:16:00,
2013-01-18 23:21:00,35.4,34.6,30.13,SW,215,0.0,0.0,97,0.00,,,0.01,LWC V2.00 B2112,2013-01-19 07:21:00,
2013-01-18 23:26:00,35.3,34.5,30.13,SW,215,0.0,0.0,97,0.00,,,0.01,LWC V2.00 B2112,2013-01-19 07:26:00,
2013-01-18 23:30:00,35.2,34.4,30.12,SW,215,0.0,0.0,97,0.00,,,0.00,LWC V2.00 B2112,2013-01-19 07:30:00,
2013-01-18 23:31:00,35.1,34.3,30.13,SW,215,0.0,0.0,97,0.00,,,0.01,LWC V2.00 B2112,2013-01-19 07:31:00,
2013-01-18 23:40:00,35.2,34.4,30.13,North,0,0.0,0.0,97,0.00,,,0.00,LWC V2.00 B2112,2013-01-19 07:40:00,
2013-01-18 23:50:00,35.2,34.4,30.13,North,0,0.0,0.0,97,0.00,,,0.00,LWC V2.00 B2112,2013-01-19 07:50:00,